Terminal Aerodrome Forecast
Issued by NWS

Home | Current Version | Previous Version | Graphics & Text | Print | Product List | Glossary On
Versions: 1 2 3 4 5 6 7 8 9 10 11 12 13 14 15 16 17 18 19 20
149
FTUS43 KGRB 251139
TAFMTW
TAF
KMTW 251139Z 2512/2612 05011G17KT P6SM SCT006 OVC012
      TEMPO 2512/2515 5SM -DZ BR BKN006
     FM251700 06011G20KT 6SM -RA BR OVC008
     FM252300 06011KT 4SM -RA BR OVC007
     FM260200 06010G15KT 2SM -RA BR OVC007
     FM260700 07009KT 1 1/2SM -RA BR OVC003=

USA.gov is the U.S. government's official web portal to all federal, state and local government web resources and services.